sensor_id;sensor_type;location;lat;lon;timestamp;P1;durP1;ratioP1;P2;durP2;ratioP2
13999;SDS011;7075;53.574;10.054;2022-12-13T12:09:15;89.63;;;84.07;;
13999;SDS011;7075;53.574;10.054;2022-12-13T12:11:57;97.20;;;90.82;;
13999;SDS011;7075;53.574;10.054;2022-12-13T12:17:13;101.20;;;94.90;;
13999;SDS011;7075;53.574;10.054;2022-12-13T12:19:44;107.95;;;101.22;;
13999;SDS011;7075;53.574;10.054;2022-12-13T12:22:22;114.20;;;107.17;;
13999;SDS011;7075;53.574;10.054;2022-12-13T12:27:38;102.78;;;96.50;;
13999;SDS011;7075;53.574;10.054;2022-12-13T12:30:32;107.95;;;101.60;;
13999;SDS011;7075;53.574;10.054;2022-12-13T12:36:23;103.07;;;96.22;;
13999;SDS011;7075;53.574;10.054;2022-12-13T12:38:39;108.13;;;101.50;;
13999;SDS011;7075;53.574;10.054;2022-12-13T12:53:09;151.65;;;142.90;;
13999;SDS011;7075;53.574;10.054;2022-12-13T12:58:52;134.38;;;126.43;;
13999;SDS011;7075;53.574;10.054;2022-12-13T13:01:43;125.97;;;118.53;;
13999;SDS011;7075;53.574;10.054;2022-12-13T13:04:20;128.27;;;120.53;;
13999;SDS011;7075;53.574;10.054;2022-12-13T13:09:38;112.35;;;105.45;;
13999;SDS011;7075;53.574;10.054;2022-12-13T13:12:04;97.50;;;91.45;;
13999;SDS011;7075;53.574;10.054;2022-12-13T13:14:36;103.95;;;97.43;;
13999;SDS011;7075;53.574;10.054;2022-12-13T13:22:36;104.80;;;98.22;;
13999;SDS011;7075;53.574;10.054;2022-12-13T13:27:32;104.57;;;97.95;;
13999;SDS011;7075;53.574;10.054;2022-12-13T13:30:06;107.68;;;100.95;;
13999;SDS011;7075;53.574;10.054;2022-12-13T13:32:32;113.60;;;106.75;;
13999;SDS011;7075;53.574;10.054;2022-12-13T13:35:44;114.30;;;107.27;;
13999;SDS011;7075;53.574;10.054;2022-12-13T13:40:41;107.72;;;100.47;;
13999;SDS011;7075;53.574;10.054;2022-12-13T13:45:52;113.00;;;106.10;;
13999;SDS011;7075;53.574;10.054;2022-12-13T13:51:11;114.28;;;107.25;;
13999;SDS011;7075;53.574;10.054;2022-12-13T13:54:01;124.50;;;116.55;;
13999;SDS011;7075;53.574;10.054;2022-12-13T13:59:57;121.17;;;113.70;;
13999;SDS011;7075;53.574;10.054;2022-12-13T14:08:58;135.85;;;127.50;;
13999;SDS011;7075;53.574;10.054;2022-12-13T14:22:21;128.88;;;121.00;;
13999;SDS011;7075;53.574;10.054;2022-12-13T14:30:31;128.33;;;120.60;;
13999;SDS011;7075;53.574;10.054;2022-12-13T14:32:57;129.90;;;122.23;;
13999;SDS011;7075;53.574;10.054;2022-12-13T14:35:24;131.93;;;123.83;;
13999;SDS011;7075;53.574;10.054;2022-12-13T14:40:49;135.63;;;127.65;;
13999;SDS011;7075;53.574;10.054;2022-12-13T14:43:22;134.07;;;125.95;;
13999;SDS011;7075;53.574;10.054;2022-12-13T14:45:57;133.48;;;125.55;;
13999;SDS011;7075;53.574;10.054;2022-12-13T14:48:29;131.43;;;123.40;;
13999;SDS011;7075;53.574;10.054;2022-12-13T14:51:01;135.50;;;127.47;;
13999;SDS011;7075;53.574;10.054;2022-12-13T14:53:29;130.98;;;122.80;;
13999;SDS011;7075;53.574;10.054;2022-12-13T14:56:02;132.95;;;124.88;;
13999;SDS011;7075;53.574;10.054;2022-12-13T14:58:28;133.93;;;125.50;;
13999;SDS011;7075;53.574;10.054;2022-12-13T15:00:54;133.30;;;125.07;;
13999;SDS011;7075;53.574;10.054;2022-12-13T15:03:20;136.50;;;128.07;;
13999;SDS011;7075;53.574;10.054;2022-12-13T15:05:50;131.10;;;123.03;;
13999;SDS011;7075;53.574;10.054;2022-12-13T15:08:18;131.05;;;122.80;;
13999;SDS011;7075;53.574;10.054;2022-12-13T15:10:45;125.73;;;117.77;;
13999;SDS011;7075;53.574;10.054;2022-12-13T15:13:18;126.03;;;117.90;;
13999;SDS011;7075;53.574;10.054;2022-12-13T15:15:51;121.47;;;113.57;;
13999;SDS011;7075;53.574;10.054;2022-12-13T15:18:21;122.57;;;114.75;;
13999;SDS011;7075;53.574;10.054;2022-12-13T15:20:48;118.65;;;110.78;;
13999;SDS011;7075;53.574;10.054;2022-12-13T15:23:25;119.47;;;111.60;;
13999;SDS011;7075;53.574;10.054;2022-12-13T15:25:58;128.10;;;119.53;;
13999;SDS011;7075;53.574;10.054;2022-12-13T15:28:31;114.65;;;106.75;;
13999;SDS011;7075;53.574;10.054;2022-12-13T15:31:00;116.38;;;108.60;;
13999;SDS011;7075;53.574;10.054;2022-12-13T15:33:30;118.30;;;110.43;;
13999;SDS011;7075;53.574;10.054;2022-12-13T15:41:27;109.13;;;101.60;;
13999;SDS011;7075;53.574;10.054;2022-12-13T15:44:00;112.93;;;105.07;;
13999;SDS011;7075;53.574;10.054;2022-12-13T15:46:33;104.50;;;96.80;;
13999;SDS011;7075;53.574;10.054;2022-12-13T15:49:02;88.88;;;81.97;;
13999;SDS011;7075;53.574;10.054;2022-12-13T15:51:30;83.90;;;77.03;;
13999;SDS011;7075;53.574;10.054;2022-12-13T15:56:37;78.72;;;71.90;;
13999;SDS011;7075;53.574;10.054;2022-12-13T16:02:16;97.30;;;89.47;;
13999;SDS011;7075;53.574;10.054;2022-12-13T16:04:47;95.80;;;88.18;;
13999;SDS011;7075;53.574;10.054;2022-12-13T16:07:26;98.22;;;90.40;;
13999;SDS011;7075;53.574;10.054;2022-12-13T16:09:58;96.32;;;88.88;;
13999;SDS011;7075;53.574;10.054;2022-12-13T16:12:25;91.43;;;84.33;;
13999;SDS011;7075;53.574;10.054;2022-12-13T16:15:58;94.18;;;86.75;;
13999;SDS011;7075;53.574;10.054;2022-12-13T16:18:13;90.85;;;83.93;;
13999;SDS011;7075;53.574;10.054;2022-12-13T16:20:44;88.70;;;81.47;;
13999;SDS011;7075;53.574;10.054;2022-12-13T16:23:10;92.13;;;84.73;;
13999;SDS011;7075;53.574;10.054;2022-12-13T16:25:36;87.85;;;80.55;;
13999;SDS011;7075;53.574;10.054;2022-12-13T16:28:02;89.03;;;81.72;;
13999;SDS011;7075;53.574;10.054;2022-12-13T16:30:50;84.25;;;77.28;;
13999;SDS011;7075;53.574;10.054;2022-12-13T16:33:16;87.40;;;80.18;;
13999;SDS011;7075;53.574;10.054;2022-12-13T16:35:42;85.22;;;77.95;;
13999;SDS011;7075;53.574;10.054;2022-12-13T16:38:08;87.17;;;80.13;;
13999;SDS011;7075;53.574;10.054;2022-12-13T16:40:37;86.95;;;79.35;;
13999;SDS011;7075;53.574;10.054;2022-12-13T16:43:03;87.40;;;80.13;;
13999;SDS011;7075;53.574;10.054;2022-12-13T16:45:36;88.88;;;81.25;;
13999;SDS011;7075;53.574;10.054;2022-12-13T16:48:04;91.03;;;83.53;;
13999;SDS011;7075;53.574;10.054;2022-12-13T16:50:30;96.63;;;88.72;;
13999;SDS011;7075;53.574;10.054;2022-12-13T16:52:56;105.47;;;96.82;;
13999;SDS011;7075;53.574;10.054;2022-12-13T16:55:22;106.32;;;97.63;;
13999;SDS011;7075;53.574;10.054;2022-12-13T16:58:21;98.57;;;90.57;;
13999;SDS011;7075;53.574;10.054;2022-12-13T17:00:41;105.47;;;97.25;;
13999;SDS011;7075;53.574;10.054;2022-12-13T17:03:09;105.72;;;97.25;;
13999;SDS011;7075;53.574;10.054;2022-12-13T17:05:36;98.88;;;90.82;;
13999;SDS011;7075;53.574;10.054;2022-12-13T17:08:03;98.43;;;90.80;;
13999;SDS011;7075;53.574;10.054;2022-12-13T17:10:29;93.45;;;85.50;;
13999;SDS011;7075;53.574;10.054;2022-12-13T17:12:55;102.78;;;94.57;;
13999;SDS011;7075;53.574;10.054;2022-12-13T17:15:20;111.55;;;102.78;;
13999;SDS011;7075;53.574;10.054;2022-12-13T17:17:46;113.80;;;105.13;;
13999;SDS011;7075;53.574;10.054;2022-12-13T17:20:13;106.28;;;98.07;;
13999;SDS011;7075;53.574;10.054;2022-12-13T17:22:41;99.35;;;91.40;;
13999;SDS011;7075;53.574;10.054;2022-12-13T17:25:08;102.60;;;94.57;;
13999;SDS011;7075;53.574;10.054;2022-12-13T17:27:35;94.47;;;86.50;;
13999;SDS011;7075;53.574;10.054;2022-12-13T17:30:02;95.47;;;87.17;;
13999;SDS011;7075;53.574;10.054;2022-12-13T17:32:29;96.20;;;88.13;;
13999;SDS011;7075;53.574;10.054;2022-12-13T17:34:54;105.05;;;96.32;;
13999;SDS011;7075;53.574;10.054;2022-12-13T17:37:20;95.27;;;87.37;;
13999;SDS011;7075;53.574;10.054;2022-12-13T17:39:46;90.10;;;82.23;;
13999;SDS011;7075;53.574;10.054;2022-12-13T17:42:11;95.13;;;87.27;;
13999;SDS011;7075;53.574;10.054;2022-12-13T17:44:37;91.83;;;84.33;;
13999;SDS011;7075;53.574;10.054;2022-12-13T17:47:03;94.03;;;86.63;;
13999;SDS011;7075;53.574;10.054;2022-12-13T17:49:29;92.38;;;84.65;;
13999;SDS011;7075;53.574;10.054;2022-12-13T17:51:55;87.63;;;80.20;;
13999;SDS011;7075;53.574;10.054;2022-12-13T17:54:21;89.40;;;82.05;;
13999;SDS011;7075;53.574;10.054;2022-12-13T17:56:48;84.85;;;77.40;;
13999;SDS011;7075;53.574;10.054;2022-12-13T17:59:14;79.73;;;72.80;;
13999;SDS011;7075;53.574;10.054;2022-12-13T18:01:43;81.80;;;74.80;;
13999;SDS011;7075;53.574;10.054;2022-12-13T18:04:10;85.80;;;78.68;;
13999;SDS011;7075;53.574;10.054;2022-12-13T18:06:37;86.22;;;78.82;;
13999;SDS011;7075;53.574;10.054;2022-12-13T18:09:03;88.60;;;81.20;;
13999;SDS011;7075;53.574;10.054;2022-12-13T18:11:29;87.72;;;80.50;;
13999;SDS011;7075;53.574;10.054;2022-12-13T18:13:55;87.55;;;80.05;;
13999;SDS011;7075;53.574;10.054;2022-12-13T18:16:20;90.68;;;82.57;;
13999;SDS011;7075;53.574;10.054;2022-12-13T18:18:47;89.95;;;82.45;;
13999;SDS011;7075;53.574;10.054;2022-12-13T18:21:14;89.03;;;81.60;;
13999;SDS011;7075;53.574;10.054;2022-12-13T18:23:40;85.77;;;78.57;;
13999;SDS011;7075;53.574;10.054;2022-12-13T18:26:07;79.93;;;72.90;;
13999;SDS011;7075;53.574;10.054;2022-12-13T18:28:37;83.55;;;76.45;;
13999;SDS011;7075;53.574;10.054;2022-12-13T18:31:05;79.82;;;72.57;;
13999;SDS011;7075;53.574;10.054;2022-12-13T18:33:36;81.32;;;74.55;;
13999;SDS011;7075;53.574;10.054;2022-12-13T18:36:03;77.37;;;70.67;;
13999;SDS011;7075;53.574;10.054;2022-12-13T18:38:29;76.30;;;69.30;;
13999;SDS011;7075;53.574;10.054;2022-12-13T18:40:55;80.57;;;73.68;;
13999;SDS011;7075;53.574;10.054;2022-12-13T18:43:22;82.93;;;75.72;;
13999;SDS011;7075;53.574;10.054;2022-12-13T18:45:49;82.82;;;75.90;;
13999;SDS011;7075;53.574;10.054;2022-12-13T18:48:18;82.18;;;75.55;;
13999;SDS011;7075;53.574;10.054;2022-12-13T18:50:44;81.43;;;74.80;;
13999;SDS011;7075;53.574;10.054;2022-12-13T18:53:10;82.10;;;75.15;;
13999;SDS011;7075;53.574;10.054;2022-12-13T18:55:35;82.53;;;75.45;;
13999;SDS011;7075;53.574;10.054;2022-12-13T18:58:01;82.28;;;75.72;;
13999;SDS011;7075;53.574;10.054;2022-12-13T19:00:27;79.13;;;72.23;;
13999;SDS011;7075;53.574;10.054;2022-12-13T19:02:53;77.38;;;70.95;;
13999;SDS011;7075;53.574;10.054;2022-12-13T19:05:19;85.47;;;78.50;;
13999;SDS011;7075;53.574;10.054;2022-12-13T19:07:45;77.80;;;71.20;;
13999;SDS011;7075;53.574;10.054;2022-12-13T19:10:11;78.47;;;71.63;;
13999;SDS011;7075;53.574;10.054;2022-12-13T19:12:36;79.53;;;72.77;;
13999;SDS011;7075;53.574;10.054;2022-12-13T19:15:02;75.50;;;68.93;;
13999;SDS011;7075;53.574;10.054;2022-12-13T19:17:28;75.22;;;69.00;;
13999;SDS011;7075;53.574;10.054;2022-12-13T19:19:54;73.38;;;66.68;;
13999;SDS011;7075;53.574;10.054;2022-12-13T19:22:19;75.63;;;69.32;;
13999;SDS011;7075;53.574;10.054;2022-12-13T19:24:48;78.82;;;72.32;;
13999;SDS011;7075;53.574;10.054;2022-12-13T19:27:14;83.13;;;75.97;;
13999;SDS011;7075;53.574;10.054;2022-12-13T19:29:40;84.47;;;77.50;;
13999;SDS011;7075;53.574;10.054;2022-12-13T19:32:05;85.75;;;78.40;;
13999;SDS011;7075;53.574;10.054;2022-12-13T19:34:31;85.97;;;78.80;;
13999;SDS011;7075;53.574;10.054;2022-12-13T19:36:57;87.60;;;80.60;;
13999;SDS011;7075;53.574;10.054;2022-12-13T19:39:22;86.88;;;79.93;;
13999;SDS011;7075;53.574;10.054;2022-12-13T19:41:49;86.80;;;79.70;;
13999;SDS011;7075;53.574;10.054;2022-12-13T19:44:16;86.00;;;78.70;;
13999;SDS011;7075;53.574;10.054;2022-12-13T19:46:42;83.10;;;76.10;;
13999;SDS011;7075;53.574;10.054;2022-12-13T19:49:11;91.57;;;84.38;;
13999;SDS011;7075;53.574;10.054;2022-12-13T19:51:36;90.13;;;82.72;;
13999;SDS011;7075;53.574;10.054;2022-12-13T19:54:02;87.90;;;80.72;;
13999;SDS011;7075;53.574;10.054;2022-12-13T19:56:28;87.22;;;80.22;;
13999;SDS011;7075;53.574;10.054;2022-12-13T19:58:53;88.50;;;81.57;;
13999;SDS011;7075;53.574;10.054;2022-12-13T20:01:20;85.97;;;79.28;;
13999;SDS011;7075;53.574;10.054;2022-12-13T20:03:46;89.80;;;82.47;;
13999;SDS011;7075;53.574;10.054;2022-12-13T20:06:13;88.70;;;81.65;;
13999;SDS011;7075;53.574;10.054;2022-12-13T20:08:41;88.28;;;81.20;;
13999;SDS011;7075;53.574;10.054;2022-12-13T20:11:08;86.38;;;79.68;;
13999;SDS011;7075;53.574;10.054;2022-12-13T20:13:35;85.35;;;78.35;;
13999;SDS011;7075;53.574;10.054;2022-12-13T20:16:02;81.13;;;74.50;;
13999;SDS011;7075;53.574;10.054;2022-12-13T20:18:31;79.27;;;72.93;;
13999;SDS011;7075;53.574;10.054;2022-12-13T20:21:01;77.20;;;70.83;;
13999;SDS011;7075;53.574;10.054;2022-12-13T20:23:32;79.97;;;73.45;;
13999;SDS011;7075;53.574;10.054;2022-12-13T20:26:03;82.53;;;75.70;;
13999;SDS011;7075;53.574;10.054;2022-12-13T20:28:30;82.68;;;75.95;;
13999;SDS011;7075;53.574;10.054;2022-12-13T20:31:30;82.77;;;76.07;;
13999;SDS011;7075;53.574;10.054;2022-12-13T20:33:58;79.55;;;72.82;;
13999;SDS011;7075;53.574;10.054;2022-12-13T20:36:26;81.22;;;74.50;;
13999;SDS011;7075;53.574;10.054;2022-12-13T20:38:56;80.03;;;73.28;;
13999;SDS011;7075;53.574;10.054;2022-12-13T20:41:23;79.53;;;73.07;;
13999;SDS011;7075;53.574;10.054;2022-12-13T20:43:53;75.68;;;69.18;;
13999;SDS011;7075;53.574;10.054;2022-12-13T20:46:21;78.45;;;71.95;;
13999;SDS011;7075;53.574;10.054;2022-12-13T20:48:47;78.70;;;72.25;;
13999;SDS011;7075;53.574;10.054;2022-12-13T20:51:14;83.93;;;77.35;;
13999;SDS011;7075;53.574;10.054;2022-12-13T20:53:43;81.03;;;74.72;;
13999;SDS011;7075;53.574;10.054;2022-12-13T20:56:11;78.45;;;72.32;;
13999;SDS011;7075;53.574;10.054;2022-12-13T20:58:39;76.43;;;70.13;;
13999;SDS011;7075;53.574;10.054;2022-12-13T21:01:05;74.57;;;68.17;;
13999;SDS011;7075;53.574;10.054;2022-12-13T21:03:31;77.18;;;70.85;;
13999;SDS011;7075;53.574;10.054;2022-12-13T21:05:58;80.82;;;74.07;;
13999;SDS011;7075;53.574;10.054;2022-12-13T21:08:23;77.68;;;71.10;;
13999;SDS011;7075;53.574;10.054;2022-12-13T21:11:07;80.33;;;73.93;;
13999;SDS011;7075;53.574;10.054;2022-12-13T21:13:48;82.22;;;75.30;;
13999;SDS011;7075;53.574;10.054;2022-12-13T21:16:23;87.47;;;80.22;;
13999;SDS011;7075;53.574;10.054;2022-12-13T21:18:51;81.53;;;75.23;;
13999;SDS011;7075;53.574;10.054;2022-12-13T21:21:18;75.82;;;69.57;;
13999;SDS011;7075;53.574;10.054;2022-12-13T21:23:44;77.47;;;71.13;;
13999;SDS011;7075;53.574;10.054;2022-12-13T21:26:09;76.85;;;70.65;;
13999;SDS011;7075;53.574;10.054;2022-12-13T21:28:35;79.85;;;73.47;;
13999;SDS011;7075;53.574;10.054;2022-12-13T21:33:30;81.70;;;75.22;;
13999;SDS011;7075;53.574;10.054;2022-12-13T21:35:56;77.63;;;71.53;;
13999;SDS011;7075;53.574;10.054;2022-12-13T21:38:21;74.33;;;68.07;;
13999;SDS011;7075;53.574;10.054;2022-12-13T21:40:47;80.38;;;73.80;;
13999;SDS011;7075;53.574;10.054;2022-12-13T21:43:14;76.60;;;70.45;;
13999;SDS011;7075;53.574;10.054;2022-12-13T21:45:41;76.40;;;70.43;;
13999;SDS011;7075;53.574;10.054;2022-12-13T21:48:07;81.03;;;74.53;;
13999;SDS011;7075;53.574;10.054;2022-12-13T21:50:33;75.63;;;69.53;;
13999;SDS011;7075;53.574;10.054;2022-12-13T21:52:58;74.07;;;68.37;;
13999;SDS011;7075;53.574;10.054;2022-12-13T21:55:24;82.23;;;76.07;;
13999;SDS011;7075;53.574;10.054;2022-12-13T21:57:49;83.97;;;77.35;;
13999;SDS011;7075;53.574;10.054;2022-12-13T22:00:34;79.47;;;73.20;;
13999;SDS011;7075;53.574;10.054;2022-12-13T22:03:00;86.90;;;80.00;;
13999;SDS011;7075;53.574;10.054;2022-12-13T22:05:26;84.63;;;78.30;;
13999;SDS011;7075;53.574;10.054;2022-12-13T22:07:51;79.30;;;73.40;;
13999;SDS011;7075;53.574;10.054;2022-12-13T22:10:17;81.63;;;75.35;;
13999;SDS011;7075;53.574;10.054;2022-12-13T22:12:43;84.90;;;78.40;;
13999;SDS011;7075;53.574;10.054;2022-12-13T22:15:12;79.43;;;73.30;;
13999;SDS011;7075;53.574;10.054;2022-12-13T22:17:38;81.03;;;74.85;;
13999;SDS011;7075;53.574;10.054;2022-12-13T22:20:07;79.18;;;72.85;;
13999;SDS011;7075;53.574;10.054;2022-12-13T22:22:36;75.73;;;69.70;;
13999;SDS011;7075;53.574;10.054;2022-12-13T22:25:03;77.85;;;71.63;;
13999;SDS011;7075;53.574;10.054;2022-12-13T22:27:29;81.03;;;74.57;;
13999;SDS011;7075;53.574;10.054;2022-12-13T22:29:55;77.50;;;71.50;;
13999;SDS011;7075;53.574;10.054;2022-12-13T22:32:21;83.40;;;77.15;;
13999;SDS011;7075;53.574;10.054;2022-12-13T22:34:47;76.80;;;71.07;;
13999;SDS011;7075;53.574;10.054;2022-12-13T22:37:13;78.05;;;72.22;;
13999;SDS011;7075;53.574;10.054;2022-12-13T22:39:38;75.05;;;68.90;;
13999;SDS011;7075;53.574;10.054;2022-12-13T22:42:04;77.10;;;71.03;;
13999;SDS011;7075;53.574;10.054;2022-12-13T22:44:30;76.30;;;70.07;;
13999;SDS011;7075;53.574;10.054;2022-12-13T22:46:55;79.03;;;73.10;;
13999;SDS011;7075;53.574;10.054;2022-12-13T22:49:21;72.97;;;67.27;;
13999;SDS011;7075;53.574;10.054;2022-12-13T22:51:47;76.18;;;70.10;;
13999;SDS011;7075;53.574;10.054;2022-12-13T22:54:13;76.28;;;70.15;;
13999;SDS011;7075;53.574;10.054;2022-12-13T22:56:38;73.20;;;67.33;;
13999;SDS011;7075;53.574;10.054;2022-12-13T22:59:04;74.87;;;68.97;;
13999;SDS011;7075;53.574;10.054;2022-12-13T23:01:34;77.25;;;71.15;;
13999;SDS011;7075;53.574;10.054;2022-12-13T23:04:04;73.72;;;67.88;;
13999;SDS011;7075;53.574;10.054;2022-12-13T23:06:34;72.93;;;67.38;;
13999;SDS011;7075;53.574;10.054;2022-12-13T23:09:03;77.18;;;71.20;;
13999;SDS011;7075;53.574;10.054;2022-12-13T23:11:30;76.90;;;71.15;;
13999;SDS011;7075;53.574;10.054;2022-12-13T23:14:15;73.55;;;67.70;;
13999;SDS011;7075;53.574;10.054;2022-12-13T23:16:42;70.30;;;64.60;;
13999;SDS011;7075;53.574;10.054;2022-12-13T23:19:09;72.93;;;67.03;;
13999;SDS011;7075;53.574;10.054;2022-12-13T23:21:37;68.07;;;62.63;;
13999;SDS011;7075;53.574;10.054;2022-12-13T23:24:03;71.45;;;65.47;;
13999;SDS011;7075;53.574;10.054;2022-12-13T23:26:29;67.38;;;61.85;;
13999;SDS011;7075;53.574;10.054;2022-12-13T23:28:57;72.88;;;67.07;;
13999;SDS011;7075;53.574;10.054;2022-12-13T23:31:26;75.25;;;69.35;;
13999;SDS011;7075;53.574;10.054;2022-12-13T23:33:53;74.65;;;68.57;;
13999;SDS011;7075;53.574;10.054;2022-12-13T23:36:20;76.40;;;70.25;;
13999;SDS011;7075;53.574;10.054;2022-12-13T23:38:47;73.10;;;67.00;;
13999;SDS011;7075;53.574;10.054;2022-12-13T23:43:43;71.47;;;65.88;;
13999;SDS011;7075;53.574;10.054;2022-12-13T23:55:57;165.33;;;152.87;;
13999;SDS011;7075;53.574;10.054;2022-12-13T23:58:25;105.53;;;98.22;;
